Time;durP1;ratioP1;P1;durP2;ratioP2;P2;SDS_P1;SDS_P2;PMS_P1;PMS_P2;Temp;Humidity;BMP_temperature;BMP_pressure;BME280_temperature;BME280_humidity;BME280_pressure;Samples;Min_cycle;Max_cycle;Signal;HPM_P1;HPM_P2
2021/06/22 00:02:21;;;;;;;28.27;19.70;;;;;;;;;;760546;182;916287;-66
2021/06/22 00:04:47;;;;;;;30.40;18.90;;;;;;;;;;759705;182;915575;-66
2021/06/22 00:07:14;;;;;;;38.33;19.93;;;;;;;;;;760509;182;915668;-66
2021/06/22 00:09:38;;;;;;;23.20;18.10;;;;;;;;;;762502;183;920357;-66
2021/06/22 00:12:04;;;;;;;26.90;18.73;;;;;;;;;;758257;182;919192;-66
2021/06/22 00:14:30;;;;;;;20.90;17.83;;;;;;;;;;754926;184;991658;-66
2021/06/22 00:16:56;;;;;;;25.60;17.60;;;;;;;;;;766987;182;919558;-67
2021/06/22 00:19:22;;;;;;;31.60;18.20;;;;;;;;;;756090;183;919036;-65
2021/06/22 00:21:48;;;;;;;20.03;17.90;;;;;;;;;;751116;185;919641;-66
2021/06/22 00:24:14;;;;;;;20.87;17.37;;;;;;;;;;747460;186;917808;-66
2021/06/22 00:26:39;;;;;;;25.23;17.80;;;;;;;;;;733599;190;919594;-66
2021/06/22 00:29:05;;;;;;;30.70;19.53;;;;;;;;;;747190;186;919424;-65
2021/06/22 00:31:31;;;;;;;26.10;19.70;;;;;;;;;;746901;187;919385;-66
2021/06/22 00:33:57;;;;;;;40.63;19.50;;;;;;;;;;751319;184;925342;-66
2021/06/22 00:36:23;;;;;;;35.90;20.13;;;;;;;;;;751628;184;918814;-66
2021/06/22 00:38:49;;;;;;;23.07;18.33;;;;;;;;;;755842;183;919883;-66
2021/06/22 00:41:15;;;;;;;24.83;19.40;;;;;;;;;;765631;182;918433;-65
2021/06/22 00:43:40;;;;;;;25.17;19.03;;;;;;;;;;761382;182;919794;-65
2021/06/22 00:46:06;;;;;;;28.37;19.50;;;;;;;;;;756557;184;919324;-66
2021/06/22 00:48:32;;;;;;;24.33;19.70;;;;;;;;;;766240;183;918796;-66
2021/06/22 00:50:58;;;;;;;32.57;20.43;;;;;;;;;;759974;183;919369;-66
2021/06/22 00:53:24;;;;;;;24.63;19.57;;;;;;;;;;756362;182;929184;-66
2021/06/22 00:55:52;;;;;;;30.20;22.37;;;;;;;;;;763984;182;911561;-65
2021/06/22 00:58:18;;;;;;;26.40;22.13;;;;;;;;;;759554;182;917428;-66
2021/06/22 01:00:44;;;;;;;33.07;20.03;;;;;;;;;;758804;182;917071;-67
2021/06/22 01:03:10;;;;;;;27.17;20.27;;;;;;;;;;761115;182;917853;-67
2021/06/22 01:05:36;;;;;;;31.43;20.33;;;;;;;;;;771819;182;850504;-67
2021/06/22 01:08:02;;;;;;;30.10;20.23;;;;;;;;;;766562;182;918866;-67
2021/06/22 01:10:28;;;;;;;26.40;21.27;;;;;;;;;;760544;183;921136;-67
2021/06/22 01:12:53;;;;;;;32.10;19.27;;;;;;;;;;765703;182;920884;-66
2021/06/22 01:15:20;;;;;;;31.10;21.30;;;;;;;;;;762877;182;920070;-66
2021/06/22 01:17:46;;;;;;;31.60;21.53;;;;;;;;;;761036;182;919451;-66
2021/06/22 01:20:12;;;;;;;20.23;14.63;;;;;;;;;;764316;182;920495;-67
2021/06/22 01:22:38;;;;;;;24.73;17.57;;;;;;;;;;759403;182;919675;-66
2021/06/22 01:25:04;;;;;;;23.80;16.10;;;;;;;;;;760984;182;919106;-66
2021/06/22 01:27:30;;;;;;;71.13;17.67;;;;;;;;;;761038;182;919443;-66
2021/06/22 01:29:55;;;;;;;29.70;17.67;;;;;;;;;;771699;180;919389;-66
2021/06/22 01:32:21;;;;;;;20.93;15.63;;;;;;;;;;763629;182;917664;-66
2021/06/22 01:34:47;;;;;;;24.27;18.47;;;;;;;;;;758125;182;919580;-66
2021/06/22 01:37:13;;;;;;;25.90;18.47;;;;;;;;;;763925;182;919226;-66
2021/06/22 01:39:39;;;;;;;24.73;18.17;;;;;;;;;;757977;182;920733;-66
2021/06/22 01:42:05;;;;;;;23.37;14.23;;;;;;;;;;758738;182;927265;-67
2021/06/22 01:44:31;;;;;;;26.27;14.00;;;;;;;;;;765653;182;919388;-66
2021/06/22 01:46:57;;;;;;;28.30;14.07;;;;;;;;;;757642;183;919595;-67
2021/06/22 01:49:23;;;;;;;54.63;18.17;;;;;;;;;;755698;184;919633;-66
2021/06/22 01:51:49;;;;;;;21.92;15.18;;;;;;;;;;758551;184;919229;-65
2021/06/22 01:54:15;;;;;;;78.07;17.33;;;;;;;;;;751260;183;919144;-66
2021/06/22 01:56:46;;;;;;;87.03;18.17;;;;;;;;;;752234;184;920649;-67
2021/06/22 01:59:07;;;;;;;146.40;21.00;;;;;;;;;;759052;183;920568;-66
2021/06/22 02:01:33;;;;;;;25.00;15.10;;;;;;;;;;760929;183;817094;-66
2021/06/22 02:03:58;;;;;;;46.80;17.70;;;;;;;;;;757250;182;919197;-65
2021/06/22 02:06:24;;;;;;;38.80;16.03;;;;;;;;;;756485;182;1027148;-66
2021/06/22 02:08:50;;;;;;;86.10;18.83;;;;;;;;;;766373;182;921325;-67
2021/06/22 02:11:16;;;;;;;100.07;17.30;;;;;;;;;;754477;183;919647;-65
2021/06/22 02:13:42;;;;;;;26.60;15.33;;;;;;;;;;754993;183;919109;-67
2021/06/22 02:16:08;;;;;;;20.47;16.63;;;;;;;;;;750738;186;902392;-66
2021/06/22 02:18:34;;;;;;;20.57;17.53;;;;;;;;;;759497;182;919244;-66
2021/06/22 02:21:00;;;;;;;20.17;16.20;;;;;;;;;;757645;182;919260;-66
2021/06/22 02:23:25;;;;;;;25.07;18.00;;;;;;;;;;761418;182;921771;-66
2021/06/22 02:25:51;;;;;;;27.10;18.50;;;;;;;;;;766234;183;916776;-66
2021/06/22 02:28:18;;;;;;;29.90;20.20;;;;;;;;;;763617;182;915994;-66
2021/06/22 02:30:43;;;;;;;25.23;17.30;;;;;;;;;;754856;183;915887;-66
2021/06/22 02:33:09;;;;;;;26.00;16.07;;;;;;;;;;767074;182;916322;-66
2021/06/22 02:35:35;;;;;;;22.57;15.83;;;;;;;;;;755650;183;1026959;-67
2021/06/22 02:38:00;;;;;;;22.63;15.67;;;;;;;;;;763068;183;919873;-66
2021/06/22 02:40:26;;;;;;;26.57;15.17;;;;;;;;;;763347;183;920413;-65
2021/06/22 02:42:52;;;;;;;19.30;14.83;;;;;;;;;;760987;183;919774;-66
2021/06/22 02:45:18;;;;;;;23.50;15.67;;;;;;;;;;760958;182;919590;-65
2021/06/22 02:47:44;;;;;;;15.52;13.10;;;;;;;;;;762233;182;939918;-65
2021/06/22 02:50:10;;;;;;;16.07;12.57;;;;;;;;;;767143;182;918339;-66
2021/06/22 02:52:36;;;;;;;25.37;13.00;;;;;;;;;;758859;182;919323;-65
2021/06/22 02:55:02;;;;;;;29.27;12.87;;;;;;;;;;761574;182;919588;-66
2021/06/22 02:57:28;;;;;;;27.77;14.53;;;;;;;;;;766719;182;919273;-66
2021/06/22 02:59:54;;;;;;;18.87;13.10;;;;;;;;;;760403;183;919499;-66
2021/06/22 03:02:20;;;;;;;21.77;13.77;;;;;;;;;;755423;184;1020378;-66
2021/06/22 03:04:46;;;;;;;27.20;14.17;;;;;;;;;;750017;186;919505;-67
2021/06/22 03:07:11;;;;;;;26.83;14.53;;;;;;;;;;743049;187;918622;-66
2021/06/22 03:09:37;;;;;;;110.90;17.97;;;;;;;;;;754243;184;919293;-66
2021/06/22 03:12:04;;;;;;;26.90;15.30;;;;;;;;;;766190;183;918980;-66
2021/06/22 03:14:29;;;;;;;20.23;14.70;;;;;;;;;;757185;183;918902;-68
2021/06/22 03:16:55;;;;;;;27.83;15.07;;;;;;;;;;757746;184;1021516;-66
2021/06/22 03:19:21;;;;;;;18.73;13.30;;;;;;;;;;759498;183;919470;-66
2021/06/22 03:21:47;;;;;;;21.50;17.47;;;;;;;;;;765194;183;914645;-66
2021/06/22 03:24:13;;;;;;;25.75;19.08;;;;;;;;;;758813;182;919520;-66
2021/06/22 03:26:39;;;;;;;28.20;21.93;;;;;;;;;;764237;181;919817;-69
2021/06/22 03:29:05;;;;;;;34.30;25.40;;;;;;;;;;763608;183;919419;-66
2021/06/22 03:31:31;;;;;;;32.47;24.13;;;;;;;;;;758574;182;921391;-67
2021/06/22 03:33:56;;;;;;;47.03;28.63;;;;;;;;;;761183;182;919950;-66
2021/06/22 03:36:22;;;;;;;41.00;29.97;;;;;;;;;;768045;182;919414;-66
2021/06/22 03:38:48;;;;;;;47.80;31.40;;;;;;;;;;761616;183;919729;-66
2021/06/22 03:41:14;;;;;;;51.33;32.87;;;;;;;;;;758680;183;919249;-66
2021/06/22 03:43:40;;;;;;;55.20;34.17;;;;;;;;;;754962;183;919835;-65
2021/06/22 03:46:06;;;;;;;49.23;30.33;;;;;;;;;;758321;183;919432;-65
2021/06/22 03:48:32;;;;;;;51.13;31.97;;;;;;;;;;748057;186;919436;-66
2021/06/22 03:50:58;;;;;;;59.97;34.37;;;;;;;;;;747556;186;918690;-66
2021/06/22 03:53:23;;;;;;;56.87;35.27;;;;;;;;;;764036;183;1022050;-65
2021/06/22 03:55:49;;;;;;;59.10;36.40;;;;;;;;;;762247;183;919692;-65
2021/06/22 03:58:15;;;;;;;56.10;36.33;;;;;;;;;;755650;183;925798;-66
2021/06/22 04:00:41;;;;;;;63.70;35.10;;;;;;;;;;765766;182;919680;-66
2021/06/22 04:03:07;;;;;;;53.23;36.10;;;;;;;;;;761237;182;921851;-66
2021/06/22 04:05:33;;;;;;;59.27;37.20;;;;;;;;;;758393;184;919736;-67
2021/06/22 04:08:00;;;;;;;55.80;36.00;;;;;;;;;;749060;186;919621;-67
2021/06/22 04:10:24;;;;;;;64.03;36.90;;;;;;;;;;761481;183;914234;-66
2021/06/22 04:12:50;;;;;;;56.33;37.37;;;;;;;;;;756538;182;918801;-66
2021/06/22 04:15:16;;;;;;;68.07;38.37;;;;;;;;;;761714;182;919011;-67
2021/06/22 04:17:42;;;;;;;55.40;36.90;;;;;;;;;;762220;184;1114222;-67
2021/06/22 04:20:09;;;;;;;63.23;39.07;;;;;;;;;;761084;183;920268;-67
2021/06/22 04:22:34;;;;;;;53.87;35.23;;;;;;;;;;756326;184;919446;-67
2021/06/22 04:25:00;;;;;;;49.47;35.87;;;;;;;;;;763723;183;918734;-68
2021/06/22 04:27:26;;;;;;;59.10;35.73;;;;;;;;;;761147;182;920762;-67
2021/06/22 04:29:52;;;;;;;56.00;37.33;;;;;;;;;;760394;183;918526;-67
2021/06/22 04:32:18;;;;;;;49.17;34.20;;;;;;;;;;762720;182;919113;-68
2021/06/22 04:34:44;;;;;;;54.93;37.50;;;;;;;;;;759606;182;919408;-67
2021/06/22 04:37:09;;;;;;;51.40;34.50;;;;;;;;;;761346;181;918972;-66
2021/06/22 04:39:36;;;;;;;49.78;33.63;;;;;;;;;;763554;182;918352;-67
2021/06/22 04:42:02;;;;;;;43.43;33.23;;;;;;;;;;762896;183;919099;-68
2021/06/22 04:44:28;;;;;;;41.73;30.87;;;;;;;;;;761821;183;919604;-69
2021/06/22 04:46:53;;;;;;;47.40;32.87;;;;;;;;;;761873;182;921697;-68
2021/06/22 04:49:19;;;;;;;44.20;31.70;;;;;;;;;;767998;182;917275;-68
2021/06/22 04:51:45;;;;;;;44.03;33.10;;;;;;;;;;763673;182;919043;-68
2021/06/22 04:54:12;;;;;;;44.60;29.80;;;;;;;;;;763591;183;919385;-69
2021/06/22 04:56:37;;;;;;;41.03;29.53;;;;;;;;;;765121;183;919227;-69
2021/06/22 04:59:03;;;;;;;35.10;26.80;;;;;;;;;;757380;182;919695;-68
2021/06/22 05:01:29;;;;;;;33.77;26.90;;;;;;;;;;760824;182;919658;-68
2021/06/22 05:03:54;;;;;;;40.67;27.37;;;;;;;;;;765602;182;921279;-68
2021/06/22 05:06:20;;;;;;;38.13;25.10;;;;;;;;;;762114;182;919999;-70
2021/06/22 05:08:46;;;;;;;33.07;23.67;;;;;;;;;;758206;183;921495;-68
2021/06/22 05:11:12;;;;;;;30.60;23.33;;;;;;;;;;760667;182;917883;-68
2021/06/22 05:13:38;;;;;;;31.07;24.30;;;;;;;;;;762720;182;920575;-68
2021/06/22 05:16:04;;;;;;;31.53;23.93;;;;;;;;;;757160;182;920013;-67
2021/06/22 05:18:30;;;;;;;33.90;24.40;;;;;;;;;;757865;183;920094;-67
2021/06/22 05:20:56;;;;;;;29.30;23.13;;;;;;;;;;762513;182;920547;-67
2021/06/22 05:23:22;;;;;;;29.40;24.10;;;;;;;;;;760896;182;916715;-66
2021/06/22 05:25:47;;;;;;;29.97;26.77;;;;;;;;;;759797;182;926873;-66
2021/06/22 05:28:13;;;;;;;39.80;33.17;;;;;;;;;;763954;182;910942;-68
2021/06/22 05:30:54;;;;;;;41.10;32.83;;;;;;;;;;764500;182;917079;-67
2021/06/22 05:33:34;;;;;;;37.27;33.20;;;;;;;;;;752099;184;1020985;-68
2021/06/22 05:36:04;;;;;;;42.50;33.27;;;;;;;;;;754376;184;1021259;-64
2021/06/22 05:38:45;;;;;;;42.13;24.30;;;;;;;;;;753297;184;919869;-66
2021/06/22 05:43:58;;;;;;;37.90;25.70;;;;;;;;;;760653;182;919648;-65
2021/06/22 05:46:23;;;;;;;47.97;26.50;;;;;;;;;;759263;182;919375;-65
2021/06/22 05:48:49;;;;;;;49.20;28.27;;;;;;;;;;762939;183;919308;-65
2021/06/22 05:51:16;;;;;;;46.40;29.40;;;;;;;;;;753391;183;922909;-65
2021/06/22 05:53:41;;;;;;;38.90;27.97;;;;;;;;;;761622;183;918837;-67
2021/06/22 05:56:07;;;;;;;39.23;23.90;;;;;;;;;;764517;183;919405;-67
2021/06/22 05:58:33;;;;;;;29.70;22.47;;;;;;;;;;760534;182;919330;-66
2021/06/22 06:00:59;;;;;;;30.30;22.30;;;;;;;;;;760208;183;918976;-66
2021/06/22 06:03:24;;;;;;;30.27;21.17;;;;;;;;;;767694;182;919583;-67
2021/06/22 06:05:50;;;;;;;38.33;22.67;;;;;;;;;;760362;183;919305;-66
2021/06/22 06:08:16;;;;;;;31.37;22.63;;;;;;;;;;757763;183;920106;-67
2021/06/22 06:10:42;;;;;;;36.93;24.20;;;;;;;;;;758551;184;919085;-67
2021/06/22 06:13:08;;;;;;;29.43;21.53;;;;;;;;;;747735;186;921503;-67
2021/06/22 06:15:34;;;;;;;31.20;19.37;;;;;;;;;;760276;183;927233;-67
2021/06/22 06:17:59;;;;;;;23.60;19.13;;;;;;;;;;759084;183;917153;-63
2021/06/22 06:20:27;;;;;;;33.23;21.07;;;;;;;;;;763462;183;919531;-65
2021/06/22 06:22:51;;;;;;;34.80;19.60;;;;;;;;;;756602;183;920216;-66
2021/06/22 06:25:17;;;;;;;32.10;21.60;;;;;;;;;;760503;183;816286;-66
2021/06/22 06:27:51;;;;;;;30.90;22.13;;;;;;;;;;765028;182;972658;-67
2021/06/22 06:30:18;;;;;;;29.77;19.93;;;;;;;;;;758417;184;920109;-66
2021/06/22 06:32:42;;;;;;;30.80;20.40;;;;;;;;;;763151;182;920161;-67
2021/06/22 06:35:09;;;;;;;33.95;21.17;;;;;;;;;;760799;182;919390;-66
2021/06/22 06:37:34;;;;;;;26.70;20.00;;;;;;;;;;765582;182;919238;-66
2021/06/22 06:40:00;;;;;;;27.00;21.07;;;;;;;;;;761512;182;925603;-66
2021/06/22 06:42:26;;;;;;;25.77;18.33;;;;;;;;;;759739;183;930063;-66
2021/06/22 06:44:52;;;;;;;23.83;17.27;;;;;;;;;;765344;182;919281;-66
2021/06/22 06:47:18;;;;;;;24.37;18.47;;;;;;;;;;757962;182;919508;-67
2021/06/22 06:49:44;;;;;;;20.48;18.08;;;;;;;;;;755521;183;919568;-67
2021/06/22 06:52:09;;;;;;;23.23;18.50;;;;;;;;;;767690;183;916905;-67
2021/06/22 06:54:35;;;;;;;29.10;19.37;;;;;;;;;;760937;183;922376;-66
2021/06/22 06:57:01;;;;;;;25.13;19.73;;;;;;;;;;756332;184;918587;-67
2021/06/22 06:59:27;;;;;;;25.73;18.37;;;;;;;;;;755301;182;919120;-67
2021/06/22 07:01:53;;;;;;;26.47;20.13;;;;;;;;;;764939;183;918476;-67
2021/06/22 07:04:19;;;;;;;25.23;19.20;;;;;;;;;;760177;183;981086;-67
2021/06/22 07:06:45;;;;;;;24.63;20.37;;;;;;;;;;759311;182;919624;-67
2021/06/22 07:09:10;;;;;;;21.00;17.87;;;;;;;;;;765015;182;919423;-66
2021/06/22 07:11:36;;;;;;;23.47;18.37;;;;;;;;;;759839;182;919508;-66
2021/06/22 07:14:03;;;;;;;22.40;18.27;;;;;;;;;;761634;182;919045;-66
2021/06/22 07:16:28;;;;;;;21.27;17.60;;;;;;;;;;765221;183;918747;-67
2021/06/22 07:18:54;;;;;;;19.33;17.20;;;;;;;;;;761642;182;919661;-66
2021/06/22 07:21:20;;;;;;;19.25;16.58;;;;;;;;;;762700;182;916567;-67
2021/06/22 07:23:46;;;;;;;26.20;17.05;;;;;;;;;;763908;183;918313;-66
2021/06/22 07:26:12;;;;;;;20.57;16.83;;;;;;;;;;760383;183;920367;-67
2021/06/22 07:28:38;;;;;;;31.07;19.00;;;;;;;;;;759891;182;920473;-68
2021/06/22 07:31:04;;;;;;;24.20;20.40;;;;;;;;;;759328;182;919023;-67
2021/06/22 07:33:30;;;;;;;21.80;18.47;;;;;;;;;;765980;183;912761;-66
2021/06/22 07:35:55;;;;;;;20.93;18.73;;;;;;;;;;757202;182;919140;-66
2021/06/22 07:38:21;;;;;;;23.80;18.77;;;;;;;;;;756378;183;918778;-67
2021/06/22 07:40:47;;;;;;;25.20;19.63;;;;;;;;;;765874;182;919898;-65
2021/06/22 07:43:13;;;;;;;25.57;18.77;;;;;;;;;;760987;183;920123;-65
2021/06/22 07:45:39;;;;;;;21.70;18.15;;;;;;;;;;758826;183;919084;-66
2021/06/22 07:48:05;;;;;;;20.77;18.13;;;;;;;;;;767225;182;919177;-65
2021/06/22 07:50:31;;;;;;;18.83;16.83;;;;;;;;;;757562;183;919304;-66
2021/06/22 07:52:57;;;;;;;24.20;18.60;;;;;;;;;;759500;182;921746;-66
2021/06/22 07:55:24;;;;;;;23.67;17.03;;;;;;;;;;758542;183;919233;-65
2021/06/22 07:57:48;;;;;;;25.17;20.10;;;;;;;;;;760116;183;919697;-66
2021/06/22 08:00:20;;;;;;;27.90;21.07;;;;;;;;;;757871;183;919288;-66
2021/06/22 08:02:41;;;;;;;22.15;19.30;;;;;;;;;;760331;182;919479;-67
2021/06/22 08:05:08;;;;;;;21.97;18.07;;;;;;;;;;765323;182;919904;-66
2021/06/22 08:07:33;;;;;;;28.23;20.17;;;;;;;;;;763386;182;964686;-67
2021/06/22 08:09:59;;;;;;;24.70;19.58;;;;;;;;;;758937;183;918320;-66
2021/06/22 08:12:25;;;;;;;21.20;18.20;;;;;;;;;;766880;181;918756;-67
2021/06/22 08:14:51;;;;;;;21.90;19.60;;;;;;;;;;764478;182;920855;-67
2021/06/22 08:17:17;;;;;;;16.93;15.17;;;;;;;;;;762255;183;918592;-67
2021/06/22 08:19:43;;;;;;;19.73;15.90;;;;;;;;;;760945;182;921753;-66
2021/06/22 08:22:08;;;;;;;19.70;15.60;;;;;;;;;;757223;184;916757;-68
2021/06/22 08:24:34;;;;;;;17.73;15.83;;;;;;;;;;759208;183;921200;-66
2021/06/22 08:27:00;;;;;;;20.53;16.00;;;;;;;;;;761429;182;919618;-67
2021/06/22 08:29:26;;;;;;;22.47;17.00;;;;;;;;;;768253;183;923744;-65
2021/06/22 08:31:52;;;;;;;18.90;15.70;;;;;;;;;;763283;183;923068;-66
2021/06/22 08:34:18;;;;;;;26.63;16.00;;;;;;;;;;757560;183;919181;-66
2021/06/22 08:36:44;;;;;;;18.87;12.80;;;;;;;;;;769316;183;932152;-67
2021/06/22 08:39:09;;;;;;;21.30;15.73;;;;;;;;;;761065;183;920442;-66
2021/06/22 08:41:35;;;;;;;20.10;16.37;;;;;;;;;;758577;183;919047;-66
2021/06/22 08:44:01;;;;;;;19.37;15.10;;;;;;;;;;767142;183;719387;-68
2021/06/22 08:46:27;;;;;;;16.20;14.50;;;;;;;;;;759493;182;1045906;-68
2021/06/22 08:48:54;;;;;;;15.30;13.70;;;;;;;;;;758967;182;919502;-65
2021/06/22 08:51:19;;;;;;;17.93;14.70;;;;;;;;;;757981;184;919817;-67
2021/06/22 08:53:44;;;;;;;15.83;12.87;;;;;;;;;;765614;184;918353;-67
2021/06/22 08:56:10;;;;;;;16.60;13.20;;;;;;;;;;761696;182;919653;-67
2021/06/22 08:58:36;;;;;;;16.20;13.00;;;;;;;;;;761232;182;919847;-66
2021/06/22 09:01:02;;;;;;;14.20;10.23;;;;;;;;;;765648;182;917122;-66
2021/06/22 09:03:28;;;;;;;13.77;11.07;;;;;;;;;;759989;182;919203;-67
2021/06/22 09:05:54;;;;;;;14.10;12.70;;;;;;;;;;760799;182;920158;-65
2021/06/22 09:08:20;;;;;;;14.80;12.03;;;;;;;;;;765774;182;919061;-66
2021/06/22 09:10:46;;;;;;;12.13;10.83;;;;;;;;;;761361;182;921129;-65
2021/06/22 09:13:16;;;;;;;13.10;10.57;;;;;;;;;;759553;182;922159;-66
2021/06/22 09:15:42;;;;;;;10.23;9.20;;;;;;;;;;755221;184;971567;-65
2021/06/22 09:18:13;;;;;;;14.77;10.37;;;;;;;;;;762930;183;928617;-64
2021/06/22 09:20:40;;;;;;;11.67;9.60;;;;;;;;;;760233;182;923864;-64
2021/06/22 09:23:11;;;;;;;12.23;9.70;;;;;;;;;;752698;182;2284139;-65
2021/06/22 09:25:36;;;;;;;10.95;9.77;;;;;;;;;;762413;183;919738;-67
2021/06/22 09:28:02;;;;;;;11.10;9.70;;;;;;;;;;766080;182;919410;-66
2021/06/22 09:30:46;;;;;;;13.63;8.30;;;;;;;;;;762100;182;918751;-66
2021/06/22 09:33:17;;;;;;;9.77;8.53;;;;;;;;;;759322;182;919242;-65
2021/06/22 09:35:42;;;;;;;9.70;7.93;;;;;;;;;;760044;182;944665;-66
2021/06/22 09:38:08;;;;;;;9.80;8.40;;;;;;;;;;767901;182;916392;-63
2021/06/22 09:40:34;;;;;;;10.03;9.00;;;;;;;;;;761444;182;916576;-66
2021/06/22 09:43:00;;;;;;;12.20;8.80;;;;;;;;;;760206;182;915326;-65
2021/06/22 09:45:28;;;;;;;9.93;8.27;;;;;;;;;;761745;182;916301;-65
2021/06/22 09:47:54;;;;;;;13.30;8.57;;;;;;;;;;767798;182;916617;-66
2021/06/22 09:50:24;;;;;;;9.30;7.70;;;;;;;;;;757898;183;948046;-66
2021/06/22 09:52:50;;;;;;;9.97;8.67;;;;;;;;;;755482;183;919573;-64
2021/06/22 09:55:15;;;;;;;16.40;7.87;;;;;;;;;;759940;184;917393;-66
2021/06/22 09:57:43;;;;;;;11.23;8.30;;;;;;;;;;759826;183;916534;-66
2021/06/22 10:00:10;;;;;;;11.50;7.13;;;;;;;;;;755803;184;1017319;-65
2021/06/22 10:02:41;;;;;;;10.37;8.03;;;;;;;;;;756239;182;919498;-65
2021/06/22 10:05:08;;;;;;;9.60;7.83;;;;;;;;;;764635;182;914510;-66
2021/06/22 10:07:33;;;;;;;16.07;7.90;;;;;;;;;;760592;182;914980;-66
2021/06/22 10:09:59;;;;;;;15.93;7.43;;;;;;;;;;761079;182;915878;-66
2021/06/22 10:12:26;;;;;;;9.47;6.50;;;;;;;;;;766485;182;916569;-66
2021/06/22 10:14:52;;;;;;;11.10;6.83;;;;;;;;;;761734;183;915914;-66
2021/06/22 10:17:18;;;;;;;7.80;6.77;;;;;;;;;;758301;182;921144;-65
2021/06/22 10:19:45;;;;;;;7.90;6.97;;;;;;;;;;761305;182;919837;-66
2021/06/22 10:22:10;;;;;;;10.40;6.10;;;;;;;;;;767116;182;915138;-65
2021/06/22 10:24:38;;;;;;;12.60;6.13;;;;;;;;;;757713;183;921190;-66
2021/06/22 10:27:02;;;;;;;7.37;5.70;;;;;;;;;;760505;182;1009329;-68
2021/06/22 10:29:28;;;;;;;7.00;6.27;;;;;;;;;;766296;183;919238;-68
2021/06/22 10:31:53;;;;;;;12.30;6.90;;;;;;;;;;754254;184;920803;-66
2021/06/22 10:34:19;;;;;;;11.70;7.80;;;;;;;;;;755564;183;916121;-65
2021/06/22 10:36:45;;;;;;;8.50;7.60;;;;;;;;;;759792;184;912430;-67
2021/06/22 10:39:12;;;;;;;12.27;8.30;;;;;;;;;;749869;184;918504;-66
2021/06/22 10:41:39;;;;;;;12.00;8.47;;;;;;;;;;762018;183;911944;-67
2021/06/22 10:44:19;;;;;;;9.77;8.40;;;;;;;;;;760666;183;919374;-67
2021/06/22 10:46:45;;;;;;;17.10;8.73;;;;;;;;;;758885;183;926627;-66
2021/06/22 10:49:16;;;;;;;9.63;8.10;;;;;;;;;;766648;182;881354;-67
2021/06/22 10:51:43;;;;;;;11.15;8.80;;;;;;;;;;763986;183;919278;-66
2021/06/22 10:54:08;;;;;;;13.93;9.90;;;;;;;;;;753945;183;918922;-66
2021/06/22 10:56:34;;;;;;;17.27;10.30;;;;;;;;;;766387;182;919680;-66
2021/06/22 10:59:06;;;;;;;12.17;10.10;;;;;;;;;;756969;183;918863;-66
2021/06/22 11:01:32;;;;;;;10.90;9.73;;;;;;;;;;752475;185;920299;-67
2021/06/22 11:04:04;;;;;;;13.43;10.50;;;;;;;;;;755297;183;919441;-66
2021/06/22 11:06:29;;;;;;;15.30;10.13;;;;;;;;;;762871;180;918518;-69
2021/06/22 11:08:55;;;;;;;15.20;10.90;;;;;;;;;;761595;183;919538;-67
2021/06/22 11:11:21;;;;;;;15.43;10.40;;;;;;;;;;755821;182;1737698;-66
2021/06/22 11:13:47;;;;;;;13.07;10.85;;;;;;;;;;760833;183;965852;-68
2021/06/22 11:16:28;;;;;;;16.77;9.47;;;;;;;;;;763384;182;919452;-66
2021/06/22 11:19:03;;;;;;;14.53;9.53;;;;;;;;;;767816;182;919598;-67
2021/06/22 11:21:29;;;;;;;14.70;11.00;;;;;;;;;;757961;183;919106;-67
2021/06/22 11:23:55;;;;;;;13.87;10.57;;;;;;;;;;760371;183;919274;-66
2021/06/22 11:26:21;;;;;;;15.70;10.40;;;;;;;;;;766720;183;918994;-66
2021/06/22 11:28:54;;;;;;;13.13;10.47;;;;;;;;;;761141;182;922200;-69
2021/06/22 11:31:25;;;;;;;14.33;12.27;;;;;;;;;;758759;183;919590;-68
2021/06/22 11:33:51;;;;;;;15.33;11.63;;;;;;;;;;755582;185;919351;-69
2021/06/22 11:36:31;;;;;;;13.07;11.50;;;;;;;;;;747022;186;918813;-69
2021/06/22 11:39:03;;;;;;;15.30;13.80;;;;;;;;;;739099;190;918432;-67
2021/06/22 11:41:29;;;;;;;15.73;12.93;;;;;;;;;;757143;186;918555;-69
2021/06/22 11:44:01;;;;;;;14.30;12.80;;;;;;;;;;761464;183;919105;-68
2021/06/22 11:46:27;;;;;;;13.90;12.10;;;;;;;;;;758058;181;1021481;-67
2021/06/22 11:48:54;;;;;;;15.52;13.95;;;;;;;;;;767844;183;921133;-68
2021/06/22 11:51:20;;;;;;;14.80;11.83;;;;;;;;;;762400;183;922669;-69
2021/06/22 11:53:46;;;;;;;15.10;13.50;;;;;;;;;;761322;183;913621;-69
2021/06/22 11:56:12;;;;;;;16.13;12.87;;;;;;;;;;758101;183;919246;-67
2021/06/22 11:58:38;;;;;;;15.40;12.70;;;;;;;;;;767230;182;919025;-69
2021/06/22 12:01:04;;;;;;;16.87;11.87;;;;;;;;;;757797;183;919541;-68
2021/06/22 12:03:30;;;;;;;18.93;12.00;;;;;;;;;;751254;185;918598;-68
2021/06/22 12:05:55;;;;;;;13.57;11.77;;;;;;;;;;747781;186;917040;-68
2021/06/22 12:08:21;;;;;;;12.70;11.20;;;;;;;;;;746866;187;912689;-67
2021/06/22 12:10:48;;;;;;;11.63;10.43;;;;;;;;;;759287;183;913714;-68
2021/06/22 12:13:14;;;;;;;13.67;11.50;;;;;;;;;;767501;183;913682;-68
2021/06/22 12:15:39;;;;;;;16.83;12.67;;;;;;;;;;754892;183;915805;-68
2021/06/22 12:18:05;;;;;;;13.10;11.73;;;;;;;;;;756791;183;916412;-68
2021/06/22 12:20:31;;;;;;;15.67;11.77;;;;;;;;;;760807;183;916156;-68
2021/06/22 12:23:04;;;;;;;18.63;12.70;;;;;;;;;;766470;183;917404;-69
2021/06/22 12:25:29;;;;;;;13.03;10.43;;;;;;;;;;759836;183;920105;-69
2021/06/22 12:27:55;;;;;;;14.53;11.07;;;;;;;;;;758099;182;1017294;-69
2021/06/22 12:30:20;;;;;;;15.87;12.17;;;;;;;;;;764573;182;916447;-68
2021/06/22 12:32:46;;;;;;;14.80;11.40;;;;;;;;;;757213;182;920112;-68
2021/06/22 12:35:13;;;;;;;11.88;10.77;;;;;;;;;;755229;183;919284;-71
2021/06/22 12:37:39;;;;;;;12.70;11.40;;;;;;;;;;760310;182;916075;-67
2021/06/22 12:40:05;;;;;;;13.50;11.13;;;;;;;;;;770145;180;916205;-69
2021/06/22 12:42:35;;;;;;;14.47;11.33;;;;;;;;;;759511;182;915635;-69
2021/06/22 12:44:57;;;;;;;12.67;11.23;;;;;;;;;;758893;182;919621;-66
2021/06/22 12:47:23;;;;;;;11.77;10.67;;;;;;;;;;764512;182;916683;-68
2021/06/22 12:49:49;;;;;;;13.60;11.33;;;;;;;;;;758676;182;920024;-69
2021/06/22 12:52:16;;;;;;;14.93;11.12;;;;;;;;;;759430;182;920111;-68
2021/06/22 12:54:41;;;;;;;16.93;10.40;;;;;;;;;;764973;182;921968;-68
2021/06/22 12:57:07;;;;;;;14.03;10.77;;;;;;;;;;760382;183;919390;-67
2021/06/22 12:59:39;;;;;;;12.67;9.87;;;;;;;;;;761587;182;919551;-68
2021/06/22 13:02:07;;;;;;;13.13;11.20;;;;;;;;;;762438;182;918319;-68
2021/06/22 13:04:38;;;;;;;14.07;10.73;;;;;;;;;;767094;182;919477;-70
2021/06/22 13:07:04;;;;;;;14.33;9.77;;;;;;;;;;761066;182;1022432;-68
2021/06/22 13:09:30;;;;;;;12.27;9.27;;;;;;;;;;761191;183;918994;-69
2021/06/22 13:11:56;;;;;;;12.40;8.30;;;;;;;;;;759150;182;918741;-67
2021/06/22 13:14:21;;;;;;;12.63;9.20;;;;;;;;;;766213;179;919441;-67
2021/06/22 13:16:53;;;;;;;10.43;8.67;;;;;;;;;;759509;183;919536;-70
2021/06/22 13:19:19;;;;;;;13.30;9.80;;;;;;;;;;757136;183;919018;-67
2021/06/22 13:21:46;;;;;;;14.10;9.93;;;;;;;;;;763484;183;919092;-70
2021/06/22 13:24:12;;;;;;;13.77;10.97;;;;;;;;;;761123;183;919567;-70
2021/06/22 13:26:37;;;;;;;12.93;10.10;;;;;;;;;;762219;183;924007;-69
2021/06/22 13:29:03;;;;;;;15.13;10.70;;;;;;;;;;761175;182;918519;-69
2021/06/22 13:31:29;;;;;;;14.17;10.70;;;;;;;;;;769435;182;919511;-68
2021/06/22 13:34:10;;;;;;;13.50;11.23;;;;;;;;;;759523;183;920382;-68
2021/06/22 13:36:36;;;;;;;10.67;9.57;;;;;;;;;;760449;182;920957;-70
2021/06/22 13:39:05;;;;;;;13.43;10.70;;;;;;;;;;760927;182;919085;-68
2021/06/22 13:41:31;;;;;;;12.90;11.00;;;;;;;;;;764797;183;919473;-71
2021/06/22 13:43:56;;;;;;;14.70;10.17;;;;;;;;;;751183;182;2223113;-69
2021/06/22 13:46:25;;;;;;;13.50;10.77;;;;;;;;;;758978;182;918311;-69
2021/06/22 13:48:49;;;;;;;15.43;11.73;;;;;;;;;;767775;182;918410;-66
2021/06/22 13:51:14;;;;;;;12.47;10.83;;;;;;;;;;755737;183;918907;-68
2021/06/22 13:53:42;;;;;;;14.07;9.90;;;;;;;;;;759349;183;919214;-66
2021/06/22 13:56:06;;;;;;;17.73;11.77;;;;;;;;;;764949;182;919032;-65
2021/06/22 13:58:32;;;;;;;11.97;10.00;;;;;;;;;;759037;182;919689;-67
2021/06/22 14:00:57;;;;;;;16.27;11.37;;;;;;;;;;760354;182;919273;-66
2021/06/22 14:03:23;;;;;;;13.17;10.10;;;;;;;;;;759011;183;919353;-68
2021/06/22 14:05:49;;;;;;;11.97;10.20;;;;;;;;;;764596;182;919620;-67